createdAt,value
2018-04-29T00:02:08.396Z,53.50
2018-04-29T00:04:37.530Z,53.70
2018-04-29T00:07:05.861Z,53.70
2018-04-29T00:09:34.339Z,55.10
2018-04-29T00:12:02.877Z,56.10
2018-04-29T00:14:31.256Z,56.30
2018-04-29T00:16:59.697Z,56.90
2018-04-29T00:19:28.002Z,56.60
2018-04-29T00:21:56.624Z,56.00
2018-04-29T00:24:25.086Z,56.00
2018-04-29T00:26:53.418Z,56.00
2018-04-29T00:29:21.971Z,56.00
2018-04-29T00:31:50.306Z,56.10
2018-04-29T00:34:18.601Z,56.60
2018-04-29T00:36:47.149Z,56.70
2018-04-29T00:39:15.651Z,56.80
2018-04-29T00:41:44.137Z,57.20
2018-04-29T00:44:12.565Z,57.20
2018-04-29T00:46:40.936Z,57.20
2018-04-29T00:49:10.002Z,57.70
2018-04-29T00:51:56.125Z,57.10
2018-04-29T00:54:24.720Z,57.20
2018-04-29T00:56:53.927Z,56.70
2018-04-29T00:59:22.199Z,56.60
2018-04-29T01:01:50.530Z,57.20
2018-04-29T01:04:18.932Z,58.90
2018-04-29T01:06:47.440Z,58.40
2018-04-29T01:09:16.847Z,57.50
2018-04-29T01:11:45.304Z,57.50
2018-04-29T01:14:13.746Z,57.40
2018-04-29T01:16:42.054Z,57.50
2018-04-29T01:19:10.432Z,57.40
2018-04-29T01:21:38.764Z,57.80
2018-04-29T01:24:07.370Z,57.80
2018-04-29T01:26:35.640Z,58.80
2018-04-29T01:29:04.101Z,59.30
2018-04-29T01:31:32.429Z,59.10
2018-04-29T01:34:00.736Z,58.40
2018-04-29T01:36:29.220Z,58.20
2018-04-29T01:38:57.705Z,58.00
2018-04-29T01:41:26.264Z,58.00
2018-04-29T01:43:55.460Z,58.20
2018-04-29T01:46:24.595Z,58.10
2018-04-29T01:48:52.891Z,58.10
2018-04-29T01:51:21.301Z,57.90
2018-04-29T01:53:49.560Z,58.60
2018-04-29T01:56:17.892Z,58.70
2018-04-29T01:58:46.327Z,58.20
2018-04-29T02:01:14.671Z,58.30
2018-04-29T02:03:43.180Z,58.30
2018-04-29T02:06:11.450Z,58.60
2018-04-29T02:08:39.832Z,59.10
2018-04-29T02:11:08.345Z,58.60
2018-04-29T02:13:36.776Z,58.70
2018-04-29T02:16:05.096Z,58.40
2018-04-29T02:18:34.777Z,57.70
2018-04-29T02:21:03.076Z,57.70
2018-04-29T02:23:31.377Z,57.60
2018-04-29T02:25:59.642Z,57.50
2018-04-29T02:28:28.708Z,58.20
2018-04-29T02:30:57.187Z,58.20
2018-04-29T02:33:25.577Z,58.10
2018-04-29T02:35:54.036Z,57.80
2018-04-29T02:38:22.577Z,58.20
2018-04-29T02:40:51.007Z,58.00
2018-04-29T02:43:19.306Z,57.70
2018-04-29T02:45:48.351Z,58.10
2018-04-29T02:48:16.618Z,58.10
2018-04-29T02:50:45.161Z,58.10
2018-04-29T02:53:14.182Z,58.00
2018-04-29T02:55:42.472Z,58.00
2018-04-29T02:58:10.868Z,57.60
2018-04-29T03:00:39.121Z,58.00
2018-04-29T03:03:07.799Z,58.20
2018-04-29T03:05:36.302Z,57.80
2018-04-29T03:08:04.680Z,57.70
2018-04-29T03:10:33.018Z,58.00
2018-04-29T03:13:01.312Z,58.20
2018-04-29T03:15:30.266Z,58.00
2018-04-29T03:17:58.713Z,57.70
2018-04-29T03:20:27.056Z,57.80
2018-04-29T03:22:55.447Z,57.70
2018-04-29T03:25:23.773Z,57.90
2018-04-29T03:27:52.922Z,58.30
2018-04-29T03:30:21.288Z,58.30
2018-04-29T03:32:49.563Z,58.30
2018-04-29T03:35:18.071Z,58.40
2018-04-29T03:37:46.432Z,58.10
2018-04-29T03:40:14.730Z,58.00
2018-04-29T03:42:43.003Z,57.80
2018-04-29T03:45:11.266Z,58.00
2018-04-29T03:47:39.741Z,58.30
2018-04-29T03:50:08.148Z,58.50
2018-04-29T03:52:37.769Z,58.20
2018-04-29T03:55:06.036Z,57.90
2018-04-29T03:57:52.058Z,58.10
2018-04-29T04:00:49.927Z,57.70
2018-04-29T04:03:38.402Z,57.80
2018-04-29T04:06:06.831Z,57.80
2018-04-29T04:08:35.432Z,58.20
2018-04-29T04:11:03.758Z,58.50
2018-04-29T04:13:32.011Z,57.80
2018-04-29T04:16:00.363Z,57.60
2018-04-29T04:18:28.646Z,57.90
2018-04-29T04:20:57.739Z,57.80
2018-04-29T04:23:26.008Z,57.70
2018-04-29T04:25:54.301Z,58.00
2018-04-29T04:28:23.464Z,58.70
2018-04-29T04:30:51.816Z,58.70
2018-04-29T04:33:20.113Z,59.50
2018-04-29T04:35:48.513Z,60.50
2018-04-29T04:38:17.781Z,61.00
2018-04-29T04:40:46.196Z,61.40
2018-04-29T04:43:14.751Z,60.80
2018-04-29T04:45:43.145Z,60.60
2018-04-29T04:48:11.518Z,60.50
2018-04-29T04:50:40.029Z,60.00
2018-04-29T04:53:09.289Z,60.20
2018-04-29T04:55:37.629Z,60.20
2018-04-29T04:58:06.186Z,60.10
2018-04-29T05:00:35.416Z,59.90
2018-04-29T05:03:03.697Z,59.90
2018-04-29T05:05:33.937Z,59.40
2018-04-29T05:08:02.216Z,59.30
2018-04-29T05:10:30.514Z,59.20
2018-04-29T05:12:58.896Z,60.10
2018-04-29T05:15:27.182Z,59.50
2018-04-29T05:17:57.007Z,59.20
2018-04-29T05:20:25.348Z,59.20
2018-04-29T05:22:53.657Z,59.10
2018-04-29T05:25:22.863Z,58.80
2018-04-29T05:27:52.062Z,59.20
2018-04-29T05:30:21.237Z,59.00
2018-04-29T05:32:50.348Z,58.60
2018-04-29T05:35:18.720Z,59.00
2018-04-29T05:37:48.047Z,59.30
2018-04-29T05:40:16.325Z,59.30
2018-04-29T05:42:44.608Z,59.30
2018-04-29T05:45:12.941Z,60.10
2018-04-29T05:47:41.243Z,60.50
2018-04-29T05:50:10.547Z,60.30
2018-04-29T05:52:41.025Z,60.30
2018-04-29T05:55:10.377Z,60.10
2018-04-29T05:57:38.759Z,60.10
2018-04-29T06:00:07.115Z,60.70
2018-04-29T06:02:36.188Z,60.10
2018-04-29T06:05:05.490Z,60.00
2018-04-29T06:07:33.789Z,59.30
2018-04-29T06:10:02.874Z,58.40
2018-04-29T06:12:31.272Z,58.40
2018-04-29T06:14:59.562Z,58.60
2018-04-29T06:17:28.593Z,59.30
2018-04-29T06:19:56.954Z,59.20
2018-04-29T06:22:25.274Z,58.80
2018-04-29T06:24:53.549Z,58.70
2018-04-29T06:27:23.500Z,57.60
2018-04-29T06:29:51.814Z,57.60
2018-04-29T06:32:20.318Z,57.20
2018-04-29T06:34:48.629Z,56.90
2018-04-29T06:37:16.994Z,56.90
2018-04-29T06:39:46.048Z,57.30
2018-04-29T06:42:14.417Z,57.90
2018-04-29T06:44:43.533Z,58.00
2018-04-29T06:47:11.872Z,57.50
2018-04-29T06:49:40.697Z,59.00
2018-04-29T06:52:10.011Z,58.70
2018-04-29T06:54:38.315Z,58.10
2018-04-29T06:57:07.404Z,57.60
2018-04-29T06:59:36.519Z,58.00
2018-04-29T07:02:04.844Z,58.00
2018-04-29T07:04:33.398Z,57.90
2018-04-29T07:07:01.846Z,57.90
2018-04-29T07:09:30.220Z,58.40
2018-04-29T07:12:01.369Z,58.50
2018-04-29T07:14:30.736Z,58.20
2018-04-29T07:16:59.229Z,58.20
2018-04-29T07:19:27.539Z,57.80
2018-04-29T07:21:55.843Z,57.20
2018-04-29T07:24:24.186Z,57.00
2018-04-29T07:26:52.469Z,56.70
2018-04-29T07:29:20.826Z,57.30
2018-04-29T07:31:49.931Z,57.20
2018-04-29T07:34:19.071Z,56.70
2018-04-29T07:36:47.386Z,56.70
2018-04-29T07:39:15.704Z,56.10
2018-04-29T07:41:44.242Z,56.50
2018-04-29T07:44:12.641Z,56.00
2018-04-29T07:46:42.184Z,58.60
2018-04-29T07:49:10.508Z,58.50
2018-04-29T07:51:38.913Z,59.20
2018-04-29T07:54:07.211Z,60.00
2018-04-29T07:56:35.660Z,60.90
2018-04-29T07:59:04.860Z,62.20
2018-04-29T08:01:35.270Z,62.70
2018-04-29T08:04:03.601Z,62.70
2018-04-29T08:06:31.960Z,62.80
2018-04-29T08:09:00.501Z,62.90
2018-04-29T08:11:28.784Z,63.50
2018-04-29T08:13:57.055Z,63.10
2018-04-29T08:16:25.491Z,63.40
2018-04-29T08:18:53.852Z,64.00
2018-04-29T08:21:22.291Z,64.60
2018-04-29T08:23:51.426Z,62.80
2018-04-29T08:26:19.830Z,62.90
2018-04-29T08:28:48.161Z,64.30
2018-04-29T08:31:16.519Z,69.00
2018-04-29T08:33:44.810Z,59.80
2018-04-29T08:36:13.969Z,53.90
2018-04-29T08:38:43.221Z,54.90
2018-04-29T08:41:13.481Z,54.40
2018-04-29T08:43:41.991Z,54.40
2018-04-29T08:46:10.561Z,54.60
2018-04-29T08:48:38.996Z,54.70
2018-04-29T08:51:08.048Z,54.90
2018-04-29T08:53:36.406Z,54.80
2018-04-29T08:56:04.736Z,54.40
2018-04-29T08:58:33.109Z,54.80
2018-04-29T09:01:02.198Z,53.90
2018-04-29T09:03:31.356Z,52.90
2018-04-29T09:05:59.676Z,52.90
2018-04-29T09:08:28.763Z,53.50
2018-04-29T09:10:58.143Z,53.30
2018-04-29T09:13:26.489Z,53.30
2018-04-29T09:15:54.868Z,52.90
2018-04-29T09:18:23.645Z,53.30
2018-04-29T09:20:52.466Z,51.70
2018-04-29T09:23:22.267Z,53.10
2018-04-29T09:25:52.603Z,52.80
2018-04-29T09:28:21.241Z,52.80
2018-04-29T09:30:49.656Z,52.60
2018-04-29T09:33:17.989Z,52.40
2018-04-29T09:35:47.242Z,52.30
2018-04-29T09:38:15.558Z,52.30
2018-04-29T09:40:43.897Z,51.80
2018-04-29T09:43:12.324Z,52.10
2018-04-29T09:45:40.733Z,52.20
2018-04-29T09:48:09.106Z,51.90
2018-04-29T09:50:37.687Z,51.70
2018-04-29T09:53:06.071Z,51.00
2018-04-29T09:55:34.405Z,50.10
2018-04-29T09:58:03.502Z,50.40
2018-04-29T10:00:32.904Z,50.80
2018-04-29T10:03:07.860Z,50.30
2018-04-29T10:05:36.223Z,50.10
2018-04-29T10:08:05.357Z,49.20
2018-04-29T10:10:33.706Z,49.20
2018-04-29T10:13:02.825Z,49.90
2018-04-29T10:15:31.208Z,49.90
2018-04-29T10:17:59.790Z,49.50
2018-04-29T10:20:28.177Z,50.30
2018-04-29T10:22:56.735Z,50.70
2018-04-29T10:25:25.051Z,51.10
2018-04-29T10:27:53.407Z,50.00
2018-04-29T10:30:21.829Z,50.80
2018-04-29T10:32:50.187Z,49.80
2018-04-29T10:35:18.597Z,50.30
2018-04-29T10:37:47.081Z,48.20
2018-04-29T10:40:18.253Z,49.60
2018-04-29T10:42:46.697Z,49.60
2018-04-29T10:45:15.087Z,49.60
2018-04-29T10:47:44.450Z,49.00
2018-04-29T10:50:12.776Z,48.90
2018-04-29T10:52:42.005Z,46.20
2018-04-29T10:55:10.389Z,46.30
2018-04-29T10:57:39.694Z,46.30
2018-04-29T11:00:08.062Z,46.10
2018-04-29T11:02:36.511Z,47.20
2018-04-29T11:05:05.806Z,46.60
2018-04-29T11:07:35.022Z,45.90
2018-04-29T11:10:03.387Z,45.90
2018-04-29T11:12:31.751Z,46.10
2018-04-29T11:15:00.046Z,46.40
2018-04-29T11:17:29.249Z,45.20
2018-04-29T11:19:57.659Z,45.20
2018-04-29T11:22:26.132Z,45.80
2018-04-29T11:24:54.426Z,44.40
2018-04-29T11:27:22.729Z,46.00
2018-04-29T11:29:51.290Z,45.60
2018-04-29T11:32:19.568Z,45.80
2018-04-29T11:34:47.911Z,45.70
2018-04-29T11:37:16.261Z,44.30
2018-04-29T11:39:45.416Z,44.20
2018-04-29T11:42:13.680Z,44.20
2018-04-29T11:44:42.144Z,45.40
2018-04-29T11:47:11.466Z,44.30
2018-04-29T11:49:39.841Z,43.90
2018-04-29T11:52:08.175Z,44.30
2018-04-29T11:54:37.360Z,45.30
2018-04-29T11:57:06.495Z,45.30
2018-04-29T11:59:34.882Z,45.20
2018-04-29T12:02:03.259Z,44.10
2018-04-29T12:04:31.860Z,45.20
2018-04-29T12:07:00.390Z,45.30
2018-04-29T12:09:29.616Z,45.60
2018-04-29T12:11:58.047Z,45.50
2018-04-29T12:14:27.144Z,46.90
2018-04-29T12:16:56.363Z,45.70
2018-04-29T12:19:25.550Z,46.80
2018-04-29T12:21:54.001Z,46.80
2018-04-29T12:24:22.287Z,46.10
2018-04-29T12:26:50.580Z,45.90
2018-04-29T12:29:18.875Z,46.50
2018-04-29T12:31:48.366Z,47.60
2018-04-29T12:34:19.398Z,47.40
2018-04-29T12:36:49.923Z,46.80
2018-04-29T12:39:18.275Z,47.20
2018-04-29T12:41:46.620Z,47.40
2018-04-29T12:44:14.952Z,47.70
2018-04-29T12:46:44.165Z,46.60
2018-04-29T12:49:13.166Z,47.30
2018-04-29T12:51:42.422Z,47.20
2018-04-29T12:54:10.849Z,47.20
2018-04-29T12:56:39.442Z,47.00
2018-04-29T12:59:08.592Z,46.90
2018-04-29T13:01:36.912Z,46.90
2018-04-29T13:04:05.298Z,47.00
2018-04-29T13:06:33.915Z,47.30
2018-04-29T13:09:02.368Z,47.40
2018-04-29T13:11:30.777Z,47.10
2018-04-29T13:13:59.200Z,47.00
2018-04-29T13:16:28.322Z,46.30
2018-04-29T13:18:56.665Z,46.30
2018-04-29T13:21:25.265Z,45.80
2018-04-29T13:23:53.577Z,45.80
2018-04-29T13:26:21.999Z,45.80
2018-04-29T13:28:50.335Z,45.90
2018-04-29T13:31:18.655Z,46.10
2018-04-29T13:33:46.988Z,45.70
2018-04-29T13:36:15.280Z,44.90
2018-04-29T13:38:44.871Z,44.70
2018-04-29T13:41:13.200Z,44.70
2018-04-29T13:43:41.753Z,44.80
2018-04-29T13:46:10.062Z,43.10
2018-04-29T13:48:39.151Z,41.50
2018-04-29T13:51:07.502Z,41.50
2018-04-29T13:53:36.007Z,41.70
2018-04-29T13:56:04.340Z,40.90
2018-04-29T13:58:32.800Z,39.60
2018-04-29T14:01:01.159Z,38.20
2018-04-29T14:03:30.491Z,38.10
2018-04-29T14:05:58.719Z,38.00
2018-04-29T14:08:27.012Z,35.50
2018-04-29T14:10:56.240Z,36.00
2018-04-29T14:13:24.596Z,36.00
2018-04-29T14:15:53.090Z,36.30
2018-04-29T14:18:21.796Z,35.90
2018-04-29T14:20:50.232Z,35.60
2018-04-29T14:23:18.491Z,35.90
2018-04-29T14:25:46.768Z,35.90
2018-04-29T14:28:15.480Z,35.80
2018-04-29T14:30:43.816Z,36.50
2018-04-29T14:33:12.274Z,35.90
2018-04-29T14:35:40.606Z,35.70
2018-04-29T14:38:11.069Z,36.80
2018-04-29T14:40:40.745Z,36.60
2018-04-29T14:43:09.101Z,36.60
2018-04-29T14:45:37.609Z,36.70
2018-04-29T14:48:06.776Z,37.40
2018-04-29T14:50:35.108Z,37.40
2018-04-29T14:53:03.466Z,37.40
2018-04-29T14:55:31.904Z,38.30
2018-04-29T14:58:00.262Z,39.20
2018-04-29T15:00:28.681Z,39.90
2018-04-29T15:02:57.902Z,42.10
2018-04-29T15:05:27.342Z,43.30
2018-04-29T15:07:55.804Z,43.20
2018-04-29T15:10:24.296Z,44.30
2018-04-29T15:12:54.401Z,45.70
2018-04-29T15:15:23.028Z,45.60
2018-04-29T15:17:51.607Z,46.40
2018-04-29T15:20:19.988Z,45.40
2018-04-29T15:22:48.339Z,45.70
2018-04-29T15:25:16.927Z,47.20
2018-04-29T15:27:45.294Z,48.20
2018-04-29T15:30:13.701Z,46.80
2018-04-29T15:32:42.008Z,47.80
2018-04-29T15:35:11.345Z,49.30
2018-04-29T15:37:39.638Z,49.30
2018-04-29T15:40:07.969Z,49.70
2018-04-29T15:42:37.199Z,50.10
2018-04-29T15:45:05.671Z,50.10
2018-04-29T15:47:34.025Z,47.40
2018-04-29T15:50:02.544Z,50.30
2018-04-29T15:52:31.166Z,50.80
2018-04-29T15:54:59.534Z,49.30
2018-04-29T15:57:27.894Z,48.40
2018-04-29T15:59:56.371Z,43.30
2018-04-29T16:02:24.690Z,42.80
2018-04-29T16:04:53.905Z,46.40
2018-04-29T16:07:23.126Z,45.20
2018-04-29T16:09:51.620Z,45.20
2018-04-29T16:12:19.968Z,42.20
2018-04-29T16:14:49.985Z,42.00
2018-04-29T16:17:20.216Z,40.40
2018-04-29T16:19:48.841Z,40.40
2018-04-29T16:22:17.316Z,39.60
2018-04-29T16:24:46.655Z,39.60
2018-04-29T16:27:15.009Z,39.50
2018-04-29T16:29:43.680Z,40.10
2018-04-29T16:32:12.040Z,39.00
2018-04-29T16:34:40.932Z,40.50
2018-04-29T16:37:09.223Z,41.20
2018-04-29T16:39:37.605Z,39.90
2018-04-29T16:42:06.081Z,40.70
2018-04-29T16:44:34.723Z,43.40
2018-04-29T16:47:03.878Z,46.00
2018-04-29T16:49:33.331Z,46.00
2018-04-29T16:52:01.942Z,46.70
2018-04-29T16:54:30.409Z,46.80
2018-04-29T16:56:59.023Z,43.60
2018-04-29T16:59:27.516Z,44.30
2018-04-29T17:01:56.137Z,43.90
2018-04-29T17:04:25.237Z,44.00
2018-04-29T17:06:53.865Z,44.00
2018-04-29T17:09:22.237Z,44.40
2018-04-29T17:11:50.505Z,46.50
2018-04-29T17:14:18.811Z,47.80
2018-04-29T17:16:47.220Z,48.00
2018-04-29T17:19:16.610Z,49.00
2018-04-29T17:21:45.856Z,49.90
2018-04-29T17:24:14.367Z,50.80
2018-04-29T17:26:42.713Z,51.80
2018-04-29T17:29:11.173Z,52.60
2018-04-29T17:31:39.397Z,53.70
2018-04-29T17:34:08.046Z,53.60
2018-04-29T17:36:36.412Z,54.20
2018-04-29T17:39:05.701Z,54.70
2018-04-29T17:41:34.959Z,54.70
2018-04-29T17:44:03.416Z,54.70
2018-04-29T17:46:31.789Z,54.60
2018-04-29T17:49:00.257Z,54.70
2018-04-29T17:51:30.285Z,55.00
2018-04-29T17:53:58.818Z,55.00
2018-04-29T17:56:27.433Z,55.30
2018-04-29T17:58:56.591Z,55.40
2018-04-29T18:01:25.196Z,55.40
2018-04-29T18:03:53.767Z,55.60
2018-04-29T18:06:22.147Z,56.50
2018-04-29T18:08:50.702Z,57.30
2018-04-29T18:11:19.189Z,56.80
2018-04-29T18:13:47.608Z,57.40
2018-04-29T18:16:16.792Z,56.80
2018-04-29T18:18:45.467Z,56.70
2018-04-29T18:21:14.005Z,56.60
2018-04-29T18:23:43.878Z,57.20
2018-04-29T18:26:12.300Z,57.20
2018-04-29T18:28:40.671Z,57.90
2018-04-29T18:31:09.116Z,57.70
2018-04-29T18:33:37.474Z,57.70
2018-04-29T18:36:06.229Z,57.90
2018-04-29T18:38:34.707Z,58.20
2018-04-29T18:41:03.618Z,58.10
2018-04-29T18:43:32.139Z,58.10
2018-04-29T18:46:00.886Z,58.40
2018-04-29T18:48:29.417Z,59.20
2018-04-29T18:50:57.826Z,59.00
2018-04-29T18:53:26.228Z,59.10
2018-04-29T18:55:54.558Z,58.90
2018-04-29T18:58:23.853Z,58.90
2018-04-29T19:00:53.281Z,59.00
2018-04-29T19:03:21.811Z,58.90
2018-04-29T19:05:50.251Z,58.80
2018-04-29T19:08:18.743Z,58.80
2018-04-29T19:10:47.351Z,59.00
2018-04-29T19:13:15.709Z,58.80
2018-04-29T19:15:44.069Z,58.90
2018-04-29T19:18:12.542Z,58.80
2018-04-29T19:20:40.934Z,58.70
2018-04-29T19:23:09.471Z,58.50
2018-04-29T19:25:38.946Z,58.20
2018-04-29T19:28:07.347Z,58.60
2018-04-29T19:30:35.718Z,58.90
2018-04-29T19:33:04.178Z,59.20
2018-04-29T19:35:32.745Z,59.50
2018-04-29T19:38:01.243Z,60.10
2018-04-29T19:40:29.999Z,60.10
2018-04-29T19:42:58.418Z,60.40
2018-04-29T19:45:26.777Z,60.50
2018-04-29T19:47:55.142Z,60.70
2018-04-29T19:50:23.566Z,60.80
2018-04-29T19:52:51.967Z,61.00
2018-04-29T19:55:21.498Z,61.00
2018-04-29T19:57:50.913Z,61.10
2018-04-29T20:00:19.167Z,61.10
2018-04-29T20:02:47.542Z,61.10
2018-04-29T20:05:16.907Z,61.60
2018-04-29T20:07:45.501Z,61.60
2018-04-29T20:10:13.957Z,61.70
2018-04-29T20:12:42.304Z,61.70
2018-04-29T20:15:10.792Z,62.00
2018-04-29T20:17:39.381Z,62.10
2018-04-29T20:20:08.065Z,62.20
2018-04-29T20:22:36.505Z,62.20
2018-04-29T20:25:05.085Z,62.20
2018-04-29T20:27:33.685Z,62.20
2018-04-29T20:30:03.008Z,62.00
2018-04-29T20:32:50.933Z,61.80
2018-04-29T20:35:19.349Z,61.80
2018-04-29T20:37:47.917Z,61.90
2018-04-29T20:40:17.529Z,62.00
2018-04-29T20:42:46.424Z,62.00
2018-04-29T20:45:14.880Z,61.90
2018-04-29T20:47:44.412Z,61.40
2018-04-29T20:50:12.871Z,61.40
2018-04-29T20:52:41.464Z,61.40
2018-04-29T20:55:10.107Z,61.20
2018-04-29T20:57:39.241Z,61.20
2018-04-29T21:00:07.673Z,61.20
2018-04-29T21:02:36.091Z,61.20
2018-04-29T21:05:04.610Z,61.00
2018-04-29T21:07:32.964Z,61.00
2018-04-29T21:10:01.469Z,61.00
2018-04-29T21:12:29.863Z,61.70
2018-04-29T21:14:58.278Z,61.20
2018-04-29T21:17:26.664Z,61.20
2018-04-29T21:19:57.018Z,61.40
2018-04-29T21:22:25.463Z,61.40
2018-04-29T21:24:53.763Z,61.50
2018-04-29T21:27:22.198Z,61.50
2018-04-29T21:29:51.323Z,62.00
2018-04-29T21:32:19.744Z,61.60
2018-04-29T21:34:48.095Z,61.80
2018-04-29T21:37:16.690Z,62.20
2018-04-29T21:39:45.197Z,62.30
2018-04-29T21:42:13.706Z,62.50
2018-04-29T21:44:42.790Z,62.60
2018-04-29T21:47:11.247Z,62.60
2018-04-29T21:49:39.612Z,62.80
2018-04-29T21:52:09.553Z,62.90
2018-04-29T21:54:37.935Z,62.80
2018-04-29T21:57:06.579Z,63.00
2018-04-29T21:59:35.027Z,62.90
2018-04-29T22:02:03.347Z,62.90
2018-04-29T22:04:31.718Z,62.80
2018-04-29T22:07:00.287Z,63.00
2018-04-29T22:09:28.602Z,63.00
2018-04-29T22:11:56.973Z,63.10
2018-04-29T22:14:25.303Z,63.30
2018-04-29T22:16:53.639Z,63.30
2018-04-29T22:19:21.955Z,63.20
2018-04-29T22:21:51.246Z,63.50
2018-04-29T22:24:21.368Z,63.60
2018-04-29T22:26:51.429Z,63.60
2018-04-29T22:29:21.530Z,63.70
2018-04-29T22:31:51.919Z,63.90
2018-04-29T22:34:21.533Z,64.00
2018-04-29T22:36:51.113Z,63.80
2018-04-29T22:39:19.435Z,63.80
2018-04-29T22:41:47.852Z,64.00
2018-04-29T22:44:16.129Z,64.10
2018-04-29T22:46:44.419Z,63.80
2018-04-29T22:49:12.738Z,63.80
2018-04-29T22:51:41.079Z,63.90
2018-04-29T22:54:09.553Z,64.00
2018-04-29T22:56:38.104Z,64.00
2018-04-29T22:59:06.545Z,64.00
2018-04-29T23:01:34.839Z,63.60
2018-04-29T23:04:03.228Z,63.60
2018-04-29T23:06:31.452Z,63.60
2018-04-29T23:09:01.012Z,63.50
2018-04-29T23:11:29.561Z,63.50
2018-04-29T23:13:57.881Z,63.20
2018-04-29T23:16:26.365Z,63.30
2018-04-29T23:18:54.647Z,63.40
2018-04-29T23:21:23.075Z,63.30
2018-04-29T23:23:52.379Z,63.00
2018-04-29T23:26:21.583Z,64.10
2018-04-29T23:28:51.226Z,64.60
2018-04-29T23:31:19.528Z,64.50
2018-04-29T23:33:47.908Z,64.90
2018-04-29T23:36:16.238Z,65.10
2018-04-29T23:38:44.654Z,66.50
2018-04-29T23:41:14.073Z,71.10
2018-04-29T23:43:44.496Z,71.40
2018-04-29T23:46:12.877Z,71.30
2018-04-29T23:48:41.249Z,71.20
2018-04-29T23:51:09.545Z,71.80
2018-04-29T23:53:37.829Z,72.20
2018-04-29T23:56:06.142Z,73.10
2018-04-29T23:58:34.489Z,73.70
